sensor_id;sensor_type;location;lat;lon;timestamp;temperature;humidity
61016;DHT22;46902;52.920;6.536;2023-04-15T00:02:17;8.80;97.20
61016;DHT22;46902;52.920;6.536;2023-04-15T00:04:47;8.80;97.50
61016;DHT22;46902;52.920;6.536;2023-04-15T00:07:13;8.70;97.70
61016;DHT22;46902;52.920;6.536;2023-04-15T00:09:40;8.70;97.90
61016;DHT22;46902;52.920;6.536;2023-04-15T00:12:06;8.70;98.10
61016;DHT22;46902;52.920;6.536;2023-04-15T00:14:34;8.70;98.40
61016;DHT22;46902;52.920;6.536;2023-04-15T00:17:01;8.70;98.60
61016;DHT22;46902;52.920;6.536;2023-04-15T00:19:26;8.60;98.80
61016;DHT22;46902;52.920;6.536;2023-04-15T00:21:52;8.60;99.00
61016;DHT22;46902;52.920;6.536;2023-04-15T00:24:17;8.50;99.30
61016;DHT22;46902;52.920;6.536;2023-04-15T00:26:43;8.50;99.40
61016;DHT22;46902;52.920;6.536;2023-04-15T00:29:09;8.50;99.70
61016;DHT22;46902;52.920;6.536;2023-04-15T00:31:34;8.40;99.90
61016;DHT22;46902;52.920;6.536;2023-04-15T00:34:00;8.40;99.90
61016;DHT22;46902;52.920;6.536;2023-04-15T00:36:26;8.30;99.90
61016;DHT22;46902;52.920;6.536;2023-04-15T00:38:52;8.30;99.90
61016;DHT22;46902;52.920;6.536;2023-04-15T00:41:18;8.30;99.90
61016;DHT22;46902;52.920;6.536;2023-04-15T00:43:44;8.30;99.90
61016;DHT22;46902;52.920;6.536;2023-04-15T00:46:12;8.30;99.90
61016;DHT22;46902;52.920;6.536;2023-04-15T00:48:38;8.20;99.90
61016;DHT22;46902;52.920;6.536;2023-04-15T00:51:05;8.20;99.90
61016;DHT22;46902;52.920;6.536;2023-04-15T00:53:32;8.20;99.90
61016;DHT22;46902;52.920;6.536;2023-04-15T00:55:57;8.20;99.90
61016;DHT22;46902;52.920;6.536;2023-04-15T00:58:23;8.10;99.90
61016;DHT22;46902;52.920;6.536;2023-04-15T01:00:49;8.10;99.90
61016;DHT22;46902;52.920;6.536;2023-04-15T01:03:18;8.10;99.90
61016;DHT22;46902;52.920;6.536;2023-04-15T01:05:45;8.10;99.90
61016;DHT22;46902;52.920;6.536;2023-04-15T01:08:11;8.00;99.90
61016;DHT22;46902;52.920;6.536;2023-04-15T01:10:37;8.00;99.90
61016;DHT22;46902;52.920;6.536;2023-04-15T01:13:03;8.00;99.90
61016;DHT22;46902;52.920;6.536;2023-04-15T01:15:28;7.90;99.90
61016;DHT22;46902;52.920;6.536;2023-04-15T01:17:57;8.00;99.90
61016;DHT22;46902;52.920;6.536;2023-04-15T01:20:23;7.90;99.90
61016;DHT22;46902;52.920;6.536;2023-04-15T01:22:48;7.90;99.90
61016;DHT22;46902;52.920;6.536;2023-04-15T01:25:19;7.80;99.90
61016;DHT22;46902;52.920;6.536;2023-04-15T01:27:47;7.80;99.90
61016;DHT22;46902;52.920;6.536;2023-04-15T01:30:12;7.80;99.90
61016;DHT22;46902;52.920;6.536;2023-04-15T01:32:38;7.80;99.90
61016;DHT22;46902;52.920;6.536;2023-04-15T01:35:04;7.70;99.90
61016;DHT22;46902;52.920;6.536;2023-04-15T01:37:30;7.80;99.90
61016;DHT22;46902;52.920;6.536;2023-04-15T01:39:56;7.70;99.90
61016;DHT22;46902;52.920;6.536;2023-04-15T01:42:22;7.70;99.90
61016;DHT22;46902;52.920;6.536;2023-04-15T01:44:48;7.70;99.90
61016;DHT22;46902;52.920;6.536;2023-04-15T01:47:14;7.60;99.90
61016;DHT22;46902;52.920;6.536;2023-04-15T01:49:39;7.60;99.90
61016;DHT22;46902;52.920;6.536;2023-04-15T01:52:06;7.60;99.90
61016;DHT22;46902;52.920;6.536;2023-04-15T01:54:31;7.60;99.90
61016;DHT22;46902;52.920;6.536;2023-04-15T01:56:57;7.60;99.90
61016;DHT22;46902;52.920;6.536;2023-04-15T01:59:23;7.50;99.90
61016;DHT22;46902;52.920;6.536;2023-04-15T02:01:48;7.50;99.90
61016;DHT22;46902;52.920;6.536;2023-04-15T02:04:14;7.40;99.90
61016;DHT22;46902;52.920;6.536;2023-04-15T02:06:43;7.40;99.90
61016;DHT22;46902;52.920;6.536;2023-04-15T02:09:09;7.40;99.90
61016;DHT22;46902;52.920;6.536;2023-04-15T02:11:35;7.40;99.90
61016;DHT22;46902;52.920;6.536;2023-04-15T02:14:02;7.30;99.90
61016;DHT22;46902;52.920;6.536;2023-04-15T02:16:29;7.30;99.90
61016;DHT22;46902;52.920;6.536;2023-04-15T02:18:55;7.30;99.90
61016;DHT22;46902;52.920;6.536;2023-04-15T02:21:20;7.30;99.90
61016;DHT22;46902;52.920;6.536;2023-04-15T02:23:47;7.30;99.90
61016;DHT22;46902;52.920;6.536;2023-04-15T02:26:13;7.20;99.90
61016;DHT22;46902;52.920;6.536;2023-04-15T02:28:38;7.20;99.90
61016;DHT22;46902;52.920;6.536;2023-04-15T02:31:07;7.20;99.90
61016;DHT22;46902;52.920;6.536;2023-04-15T02:33:34;7.20;99.90
61016;DHT22;46902;52.920;6.536;2023-04-15T02:36:00;7.20;99.90
61016;DHT22;46902;52.920;6.536;2023-04-15T02:38:26;7.10;99.90
61016;DHT22;46902;52.920;6.536;2023-04-15T02:40:51;7.10;99.90
61016;DHT22;46902;52.920;6.536;2023-04-15T02:43:17;7.10;99.90
61016;DHT22;46902;52.920;6.536;2023-04-15T02:45:44;7.10;99.90
61016;DHT22;46902;52.920;6.536;2023-04-15T02:48:09;7.10;99.90
61016;DHT22;46902;52.920;6.536;2023-04-15T02:50:35;7.00;99.90
61016;DHT22;46902;52.920;6.536;2023-04-15T02:53:04;7.00;99.90
61016;DHT22;46902;52.920;6.536;2023-04-15T02:55:30;7.00;99.90
61016;DHT22;46902;52.920;6.536;2023-04-15T02:57:56;7.00;99.90
61016;DHT22;46902;52.920;6.536;2023-04-15T03:00:23;7.00;99.90
61016;DHT22;46902;52.920;6.536;2023-04-15T03:02:49;6.90;99.90
61016;DHT22;46902;52.920;6.536;2023-04-15T03:05:21;6.90;99.90
61016;DHT22;46902;52.920;6.536;2023-04-15T03:07:50;6.90;99.90
61016;DHT22;46902;52.920;6.536;2023-04-15T03:10:16;6.90;99.90
61016;DHT22;46902;52.920;6.536;2023-04-15T03:12:41;6.90;99.90
61016;DHT22;46902;52.920;6.536;2023-04-15T03:15:08;6.80;99.90
61016;DHT22;46902;52.920;6.536;2023-04-15T03:17:34;6.90;99.90
61016;DHT22;46902;52.920;6.536;2023-04-15T03:20:01;6.80;99.90
61016;DHT22;46902;52.920;6.536;2023-04-15T03:22:27;6.80;99.90
61016;DHT22;46902;52.920;6.536;2023-04-15T03:24:53;6.80;99.90
61016;DHT22;46902;52.920;6.536;2023-04-15T03:27:19;6.70;99.90
61016;DHT22;46902;52.920;6.536;2023-04-15T03:29:44;6.70;99.90
61016;DHT22;46902;52.920;6.536;2023-04-15T03:32:10;6.70;99.90
61016;DHT22;46902;52.920;6.536;2023-04-15T03:34:37;6.70;99.90
61016;DHT22;46902;52.920;6.536;2023-04-15T03:37:02;6.70;99.90
61016;DHT22;46902;52.920;6.536;2023-04-15T03:39:28;6.70;99.90
61016;DHT22;46902;52.920;6.536;2023-04-15T03:41:54;6.60;99.90
61016;DHT22;46902;52.920;6.536;2023-04-15T03:44:19;6.60;99.90
61016;DHT22;46902;52.920;6.536;2023-04-15T03:46:45;6.60;99.90
61016;DHT22;46902;52.920;6.536;2023-04-15T03:49:10;6.60;99.90
61016;DHT22;46902;52.920;6.536;2023-04-15T03:51:36;6.50;99.90
61016;DHT22;46902;52.920;6.536;2023-04-15T03:54:02;6.50;99.90
61016;DHT22;46902;52.920;6.536;2023-04-15T03:56:27;6.50;99.90
61016;DHT22;46902;52.920;6.536;2023-04-15T03:58:53;6.50;99.90
61016;DHT22;46902;52.920;6.536;2023-04-15T04:01:18;6.50;99.90
61016;DHT22;46902;52.920;6.536;2023-04-15T04:03:44;6.40;99.90
61016;DHT22;46902;52.920;6.536;2023-04-15T04:06:10;6.40;99.90
61016;DHT22;46902;52.920;6.536;2023-04-15T04:08:37;6.40;99.90
61016;DHT22;46902;52.920;6.536;2023-04-15T04:11:03;6.40;99.90
61016;DHT22;46902;52.920;6.536;2023-04-15T04:13:29;6.40;99.90
61016;DHT22;46902;52.920;6.536;2023-04-15T04:15:54;6.40;99.90
61016;DHT22;46902;52.920;6.536;2023-04-15T04:18:20;6.40;99.90
61016;DHT22;46902;52.920;6.536;2023-04-15T04:20:46;6.40;99.90
61016;DHT22;46902;52.920;6.536;2023-04-15T04:23:11;6.30;99.90
61016;DHT22;46902;52.920;6.536;2023-04-15T04:25:37;6.30;99.90
61016;DHT22;46902;52.920;6.536;2023-04-15T04:28:03;6.40;99.90
61016;DHT22;46902;52.920;6.536;2023-04-15T04:30:29;6.40;99.90
61016;DHT22;46902;52.920;6.536;2023-04-15T04:32:54;6.30;99.90
61016;DHT22;46902;52.920;6.536;2023-04-15T04:35:20;6.30;99.90
61016;DHT22;46902;52.920;6.536;2023-04-15T04:37:46;6.30;99.90
61016;DHT22;46902;52.920;6.536;2023-04-15T04:40:12;6.30;99.90
61016;DHT22;46902;52.920;6.536;2023-04-15T04:42:38;6.30;99.90
61016;DHT22;46902;52.920;6.536;2023-04-15T04:45:04;6.30;99.90
61016;DHT22;46902;52.920;6.536;2023-04-15T04:47:30;6.30;99.90
61016;DHT22;46902;52.920;6.536;2023-04-15T04:49:55;6.20;99.90
61016;DHT22;46902;52.920;6.536;2023-04-15T04:52:21;6.30;99.90
61016;DHT22;46902;52.920;6.536;2023-04-15T04:54:46;6.20;99.90
61016;DHT22;46902;52.920;6.536;2023-04-15T04:57:12;6.20;99.90
61016;DHT22;46902;52.920;6.536;2023-04-15T04:59:38;6.20;99.90
61016;DHT22;46902;52.920;6.536;2023-04-15T05:02:04;6.20;99.90
61016;DHT22;46902;52.920;6.536;2023-04-15T05:04:30;6.30;99.90
61016;DHT22;46902;52.920;6.536;2023-04-15T05:06:56;6.20;99.90
61016;DHT22;46902;52.920;6.536;2023-04-15T05:09:22;6.20;99.90
61016;DHT22;46902;52.920;6.536;2023-04-15T05:11:48;6.30;99.90
61016;DHT22;46902;52.920;6.536;2023-04-15T05:14:14;6.30;99.90
61016;DHT22;46902;52.920;6.536;2023-04-15T05:16:39;6.30;99.90
61016;DHT22;46902;52.920;6.536;2023-04-15T05:19:05;6.30;99.90
61016;DHT22;46902;52.920;6.536;2023-04-15T05:21:30;6.30;99.90
61016;DHT22;46902;52.920;6.536;2023-04-15T05:23:56;6.20;99.90
61016;DHT22;46902;52.920;6.536;2023-04-15T05:26:22;6.20;99.90
61016;DHT22;46902;52.920;6.536;2023-04-15T05:28:48;6.30;99.90
61016;DHT22;46902;52.920;6.536;2023-04-15T05:31:15;6.30;99.90
61016;DHT22;46902;52.920;6.536;2023-04-15T05:33:40;6.30;99.90
61016;DHT22;46902;52.920;6.536;2023-04-15T05:36:06;6.30;99.90
61016;DHT22;46902;52.920;6.536;2023-04-15T05:38:32;6.30;99.90
61016;DHT22;46902;52.920;6.536;2023-04-15T05:40:58;6.40;99.90
61016;DHT22;46902;52.920;6.536;2023-04-15T05:43:23;6.40;99.90
61016;DHT22;46902;52.920;6.536;2023-04-15T05:45:49;6.40;99.90
61016;DHT22;46902;52.920;6.536;2023-04-15T05:48:14;6.40;99.90
61016;DHT22;46902;52.920;6.536;2023-04-15T05:50:41;6.40;99.90
61016;DHT22;46902;52.920;6.536;2023-04-15T05:53:07;6.50;99.90
61016;DHT22;46902;52.920;6.536;2023-04-15T05:55:33;6.50;99.90
61016;DHT22;46902;52.920;6.536;2023-04-15T05:57:58;6.60;99.90
61016;DHT22;46902;52.920;6.536;2023-04-15T06:00:24;6.60;99.90
61016;DHT22;46902;52.920;6.536;2023-04-15T06:02:50;6.70;99.90
61016;DHT22;46902;52.920;6.536;2023-04-15T06:05:17;6.70;99.90
61016;DHT22;46902;52.920;6.536;2023-04-15T06:07:42;6.80;99.90
61016;DHT22;46902;52.920;6.536;2023-04-15T06:10:09;6.80;99.90
61016;DHT22;46902;52.920;6.536;2023-04-15T06:12:34;6.80;99.90
61016;DHT22;46902;52.920;6.536;2023-04-15T06:15:00;6.90;99.90
61016;DHT22;46902;52.920;6.536;2023-04-15T06:17:26;7.00;99.90
61016;DHT22;46902;52.920;6.536;2023-04-15T06:19:52;7.10;99.90
61016;DHT22;46902;52.920;6.536;2023-04-15T06:22:23;7.10;99.90
61016;DHT22;46902;52.920;6.536;2023-04-15T06:24:49;7.20;99.90
61016;DHT22;46902;52.920;6.536;2023-04-15T06:27:16;7.30;99.90
61016;DHT22;46902;52.920;6.536;2023-04-15T06:29:41;7.40;99.90
61016;DHT22;46902;52.920;6.536;2023-04-15T06:32:07;7.50;99.90
61016;DHT22;46902;52.920;6.536;2023-04-15T06:34:33;7.60;99.90
61016;DHT22;46902;52.920;6.536;2023-04-15T06:36:58;7.70;99.90
61016;DHT22;46902;52.920;6.536;2023-04-15T06:39:25;7.80;99.90
61016;DHT22;46902;52.920;6.536;2023-04-15T06:41:51;7.80;99.90
61016;DHT22;46902;52.920;6.536;2023-04-15T06:44:17;7.90;99.90
61016;DHT22;46902;52.920;6.536;2023-04-15T06:46:43;8.00;99.90
61016;DHT22;46902;52.920;6.536;2023-04-15T06:49:09;8.10;99.90
61016;DHT22;46902;52.920;6.536;2023-04-15T06:51:35;8.20;99.90
61016;DHT22;46902;52.920;6.536;2023-04-15T06:54:02;8.20;99.90
61016;DHT22;46902;52.920;6.536;2023-04-15T06:56:30;8.30;99.90
61016;DHT22;46902;52.920;6.536;2023-04-15T06:58:56;8.40;99.90
61016;DHT22;46902;52.920;6.536;2023-04-15T07:01:22;8.40;99.90
61016;DHT22;46902;52.920;6.536;2023-04-15T07:03:47;8.50;99.90
61016;DHT22;46902;52.920;6.536;2023-04-15T07:06:13;8.50;99.90
61016;DHT22;46902;52.920;6.536;2023-04-15T07:08:39;8.60;99.90
61016;DHT22;46902;52.920;6.536;2023-04-15T07:11:04;8.70;99.90
61016;DHT22;46902;52.920;6.536;2023-04-15T07:13:31;8.80;99.90
61016;DHT22;46902;52.920;6.536;2023-04-15T07:15:57;8.80;99.90
61016;DHT22;46902;52.920;6.536;2023-04-15T07:18:22;8.90;99.90
61016;DHT22;46902;52.920;6.536;2023-04-15T07:20:48;8.90;99.90
61016;DHT22;46902;52.920;6.536;2023-04-15T07:23:14;9.00;99.90
61016;DHT22;46902;52.920;6.536;2023-04-15T07:25:39;9.10;99.90
61016;DHT22;46902;52.920;6.536;2023-04-15T07:28:05;9.10;99.90
61016;DHT22;46902;52.920;6.536;2023-04-15T07:30:31;9.10;99.90
61016;DHT22;46902;52.920;6.536;2023-04-15T07:32:57;9.20;99.90
61016;DHT22;46902;52.920;6.536;2023-04-15T07:35:23;9.30;99.90
61016;DHT22;46902;52.920;6.536;2023-04-15T07:37:50;9.30;99.90
61016;DHT22;46902;52.920;6.536;2023-04-15T07:40:16;9.40;99.90
61016;DHT22;46902;52.920;6.536;2023-04-15T07:42:42;9.40;99.90
61016;DHT22;46902;52.920;6.536;2023-04-15T07:45:09;9.50;99.90
61016;DHT22;46902;52.920;6.536;2023-04-15T07:47:34;9.60;99.90
61016;DHT22;46902;52.920;6.536;2023-04-15T07:50:00;9.60;99.90
61016;DHT22;46902;52.920;6.536;2023-04-15T07:52:27;9.70;99.90
61016;DHT22;46902;52.920;6.536;2023-04-15T07:54:52;9.70;99.90
61016;DHT22;46902;52.920;6.536;2023-04-15T07:57:18;9.70;99.90
61016;DHT22;46902;52.920;6.536;2023-04-15T07:59:44;9.70;99.90
61016;DHT22;46902;52.920;6.536;2023-04-15T08:02:10;9.70;99.90
61016;DHT22;46902;52.920;6.536;2023-04-15T08:04:36;9.80;99.90
61016;DHT22;46902;52.920;6.536;2023-04-15T08:07:02;9.80;99.90
61016;DHT22;46902;52.920;6.536;2023-04-15T08:09:28;9.80;99.90
61016;DHT22;46902;52.920;6.536;2023-04-15T08:11:54;9.90;99.90
61016;DHT22;46902;52.920;6.536;2023-04-15T08:14:21;9.90;99.90
61016;DHT22;46902;52.920;6.536;2023-04-15T08:16:47;9.90;99.90
61016;DHT22;46902;52.920;6.536;2023-04-15T08:19:12;9.90;99.90
61016;DHT22;46902;52.920;6.536;2023-04-15T08:21:38;10.00;99.90
61016;DHT22;46902;52.920;6.536;2023-04-15T08:24:05;9.90;99.90
61016;DHT22;46902;52.920;6.536;2023-04-15T08:26:31;10.00;99.90
61016;DHT22;46902;52.920;6.536;2023-04-15T08:28:57;10.00;99.90
61016;DHT22;46902;52.920;6.536;2023-04-15T08:31:22;10.10;99.90
61016;DHT22;46902;52.920;6.536;2023-04-15T08:33:48;10.30;99.90
61016;DHT22;46902;52.920;6.536;2023-04-15T08:36:16;10.40;99.90
61016;DHT22;46902;52.920;6.536;2023-04-15T08:38:43;10.60;99.90
61016;DHT22;46902;52.920;6.536;2023-04-15T08:41:17;10.60;99.90
61016;DHT22;46902;52.920;6.536;2023-04-15T08:43:53;10.70;99.90
61016;DHT22;46902;52.920;6.536;2023-04-15T08:46:20;10.70;99.90
61016;DHT22;46902;52.920;6.536;2023-04-15T08:48:47;10.70;99.90
61016;DHT22;46902;52.920;6.536;2023-04-15T08:51:13;10.60;99.90
61016;DHT22;46902;52.920;6.536;2023-04-15T08:53:42;10.60;99.90
61016;DHT22;46902;52.920;6.536;2023-04-15T08:56:08;10.50;99.90
61016;DHT22;46902;52.920;6.536;2023-04-15T08:58:35;10.40;99.90
61016;DHT22;46902;52.920;6.536;2023-04-15T09:01:01;10.40;99.90
61016;DHT22;46902;52.920;6.536;2023-04-15T09:03:29;10.40;99.90
61016;DHT22;46902;52.920;6.536;2023-04-15T09:05:55;10.30;99.90
61016;DHT22;46902;52.920;6.536;2023-04-15T09:08:21;10.30;99.90
61016;DHT22;46902;52.920;6.536;2023-04-15T09:10:47;10.30;99.90
61016;DHT22;46902;52.920;6.536;2023-04-15T09:13:13;10.30;99.90
61016;DHT22;46902;52.920;6.536;2023-04-15T09:15:38;10.10;99.90
61016;DHT22;46902;52.920;6.536;2023-04-15T09:18:05;10.10;99.90
61016;DHT22;46902;52.920;6.536;2023-04-15T09:20:38;10.10;99.90
61016;DHT22;46902;52.920;6.536;2023-04-15T09:23:14;10.10;99.90
61016;DHT22;46902;52.920;6.536;2023-04-15T09:25:40;10.10;99.90
61016;DHT22;46902;52.920;6.536;2023-04-15T09:28:07;10.10;99.90
61016;DHT22;46902;52.920;6.536;2023-04-15T09:30:33;10.10;99.90
61016;DHT22;46902;52.920;6.536;2023-04-15T09:33:01;10.10;99.90
61016;DHT22;46902;52.920;6.536;2023-04-15T09:35:27;10.10;99.90
61016;DHT22;46902;52.920;6.536;2023-04-15T09:38:07;10.00;99.90
61016;DHT22;46902;52.920;6.536;2023-04-15T09:40:37;10.00;99.90
61016;DHT22;46902;52.920;6.536;2023-04-15T09:43:04;10.00;99.90
61016;DHT22;46902;52.920;6.536;2023-04-15T09:45:31;10.10;99.90
61016;DHT22;46902;52.920;6.536;2023-04-15T09:47:58;10.20;99.90
61016;DHT22;46902;52.920;6.536;2023-04-15T09:50:27;10.30;99.90
61016;DHT22;46902;52.920;6.536;2023-04-15T09:52:54;10.40;99.90
61016;DHT22;46902;52.920;6.536;2023-04-15T09:55:20;10.40;99.90
61016;DHT22;46902;52.920;6.536;2023-04-15T09:57:47;10.40;99.90
61016;DHT22;46902;52.920;6.536;2023-04-15T10:00:13;10.30;99.90
61016;DHT22;46902;52.920;6.536;2023-04-15T10:02:40;10.40;99.90
61016;DHT22;46902;52.920;6.536;2023-04-15T10:05:10;10.40;99.90
61016;DHT22;46902;52.920;6.536;2023-04-15T10:07:38;10.40;99.90
61016;DHT22;46902;52.920;6.536;2023-04-15T10:10:06;10.40;99.90
61016;DHT22;46902;52.920;6.536;2023-04-15T10:12:32;10.50;99.90
61016;DHT22;46902;52.920;6.536;2023-04-15T10:15:01;10.60;99.90
61016;DHT22;46902;52.920;6.536;2023-04-15T10:17:29;10.70;99.90
61016;DHT22;46902;52.920;6.536;2023-04-15T10:20:00;10.80;99.90
61016;DHT22;46902;52.920;6.536;2023-04-15T10:22:27;10.80;99.90
61016;DHT22;46902;52.920;6.536;2023-04-15T10:24:54;10.80;99.90
61016;DHT22;46902;52.920;6.536;2023-04-15T10:27:20;10.80;99.90
61016;DHT22;46902;52.920;6.536;2023-04-15T10:29:48;10.80;99.90
61016;DHT22;46902;52.920;6.536;2023-04-15T10:32:17;10.80;99.90
61016;DHT22;46902;52.920;6.536;2023-04-15T10:34:45;10.80;99.90
61016;DHT22;46902;52.920;6.536;2023-04-15T10:37:11;10.80;99.90
61016;DHT22;46902;52.920;6.536;2023-04-15T10:42:07;10.70;99.90
61016;DHT22;46902;52.920;6.536;2023-04-15T10:44:35;10.70;99.90
61016;DHT22;46902;52.920;6.536;2023-04-15T10:47:07;10.60;99.90
61016;DHT22;46902;52.920;6.536;2023-04-15T10:49:35;10.70;99.90
61016;DHT22;46902;52.920;6.536;2023-04-15T10:52:07;10.70;99.90
61016;DHT22;46902;52.920;6.536;2023-04-15T10:54:33;10.70;99.90
61016;DHT22;46902;52.920;6.536;2023-04-15T10:59:30;10.70;99.90
61016;DHT22;46902;52.920;6.536;2023-04-15T11:02:00;10.70;99.90
61016;DHT22;46902;52.920;6.536;2023-04-15T11:04:52;10.70;99.90
61016;DHT22;46902;52.920;6.536;2023-04-15T11:07:46;10.70;99.90
61016;DHT22;46902;52.920;6.536;2023-04-15T11:12:39;10.60;99.90
61016;DHT22;46902;52.920;6.536;2023-04-15T11:15:36;10.70;99.90
61016;DHT22;46902;52.920;6.536;2023-04-15T11:18:25;10.70;99.90
61016;DHT22;46902;52.920;6.536;2023-04-15T11:20:52;10.70;99.90
61016;DHT22;46902;52.920;6.536;2023-04-15T11:23:44;10.70;99.90
61016;DHT22;46902;52.920;6.536;2023-04-15T11:26:11;10.70;99.90
61016;DHT22;46902;52.920;6.536;2023-04-15T11:28:46;10.70;99.90
61016;DHT22;46902;52.920;6.536;2023-04-15T11:31:13;10.60;99.90
61016;DHT22;46902;52.920;6.536;2023-04-15T11:33:58;10.60;99.90
61016;DHT22;46902;52.920;6.536;2023-04-15T11:36:27;10.60;99.90
61016;DHT22;46902;52.920;6.536;2023-04-15T11:38:54;10.60;99.90
61016;DHT22;46902;52.920;6.536;2023-04-15T11:41:23;10.60;99.90
61016;DHT22;46902;52.920;6.536;2023-04-15T11:43:49;10.60;99.90
61016;DHT22;46902;52.920;6.536;2023-04-15T11:46:15;10.60;99.90
61016;DHT22;46902;52.920;6.536;2023-04-15T11:48:45;10.60;99.90
61016;DHT22;46902;52.920;6.536;2023-04-15T11:51:12;10.50;99.90
61016;DHT22;46902;52.920;6.536;2023-04-15T11:53:46;10.50;99.90
61016;DHT22;46902;52.920;6.536;2023-04-15T11:56:22;10.50;99.90
61016;DHT22;46902;52.920;6.536;2023-04-15T11:58:51;10.50;99.90
61016;DHT22;46902;52.920;6.536;2023-04-15T12:01:17;10.50;99.90
61016;DHT22;46902;52.920;6.536;2023-04-15T12:03:47;10.50;99.90
61016;DHT22;46902;52.920;6.536;2023-04-15T12:11:40;10.60;99.90
61016;DHT22;46902;52.920;6.536;2023-04-15T12:14:12;10.60;99.90
61016;DHT22;46902;52.920;6.536;2023-04-15T12:16:52;10.60;99.90
61016;DHT22;46902;52.920;6.536;2023-04-15T12:19:27;10.60;99.90
61016;DHT22;46902;52.920;6.536;2023-04-15T12:21:58;10.70;99.90
61016;DHT22;46902;52.920;6.536;2023-04-15T12:24:24;10.70;99.90
61016;DHT22;46902;52.920;6.536;2023-04-15T12:26:52;10.70;99.90
61016;DHT22;46902;52.920;6.536;2023-04-15T12:29:20;10.70;99.90
61016;DHT22;46902;52.920;6.536;2023-04-15T12:31:50;10.70;99.90
61016;DHT22;46902;52.920;6.536;2023-04-15T12:34:18;10.70;99.90
61016;DHT22;46902;52.920;6.536;2023-04-15T12:36:49;10.60;99.90
61016;DHT22;46902;52.920;6.536;2023-04-15T12:39:15;10.70;99.90
61016;DHT22;46902;52.920;6.536;2023-04-15T12:41:41;10.60;99.90
61016;DHT22;46902;52.920;6.536;2023-04-15T12:44:07;10.60;99.90
61016;DHT22;46902;52.920;6.536;2023-04-15T12:46:33;10.60;99.90
61016;DHT22;46902;52.920;6.536;2023-04-15T12:48:59;10.50;99.90
61016;DHT22;46902;52.920;6.536;2023-04-15T12:51:25;10.50;99.90
61016;DHT22;46902;52.920;6.536;2023-04-15T12:53:51;10.50;99.90
61016;DHT22;46902;52.920;6.536;2023-04-15T12:56:17;10.50;99.90
61016;DHT22;46902;52.920;6.536;2023-04-15T12:58:43;10.50;99.90
61016;DHT22;46902;52.920;6.536;2023-04-15T13:01:09;10.60;99.90
61016;DHT22;46902;52.920;6.536;2023-04-15T13:03:35;10.60;99.90
61016;DHT22;46902;52.920;6.536;2023-04-15T13:06:00;10.60;99.90
61016;DHT22;46902;52.920;6.536;2023-04-15T13:08:29;10.60;99.90
61016;DHT22;46902;52.920;6.536;2023-04-15T13:10:55;10.60;99.90
61016;DHT22;46902;52.920;6.536;2023-04-15T13:13:21;10.60;99.90
61016;DHT22;46902;52.920;6.536;2023-04-15T13:15:46;10.60;99.90
61016;DHT22;46902;52.920;6.536;2023-04-15T13:18:12;10.60;99.90
61016;DHT22;46902;52.920;6.536;2023-04-15T13:20:38;10.60;99.90
61016;DHT22;46902;52.920;6.536;2023-04-15T13:23:04;10.60;99.90
61016;DHT22;46902;52.920;6.536;2023-04-15T13:25:30;10.60;99.90
61016;DHT22;46902;52.920;6.536;2023-04-15T13:27:55;10.60;99.90
61016;DHT22;46902;52.920;6.536;2023-04-15T13:30:22;10.60;99.90
61016;DHT22;46902;52.920;6.536;2023-04-15T13:32:48;10.50;99.90
61016;DHT22;46902;52.920;6.536;2023-04-15T13:35:14;10.50;99.90
61016;DHT22;46902;52.920;6.536;2023-04-15T13:37:40;10.40;99.90
61016;DHT22;46902;52.920;6.536;2023-04-15T13:40:06;10.40;99.90
61016;DHT22;46902;52.920;6.536;2023-04-15T13:42:32;10.40;99.90
61016;DHT22;46902;52.920;6.536;2023-04-15T13:44:58;10.30;99.90
61016;DHT22;46902;52.920;6.536;2023-04-15T13:47:23;10.30;99.90
61016;DHT22;46902;52.920;6.536;2023-04-15T13:49:49;10.30;99.90
61016;DHT22;46902;52.920;6.536;2023-04-15T13:52:17;10.20;99.90
61016;DHT22;46902;52.920;6.536;2023-04-15T13:54:42;10.20;99.90
61016;DHT22;46902;52.920;6.536;2023-04-15T13:57:08;10.20;99.90
61016;DHT22;46902;52.920;6.536;2023-04-15T13:59:33;10.20;99.90
61016;DHT22;46902;52.920;6.536;2023-04-15T14:02:00;10.20;99.90
61016;DHT22;46902;52.920;6.536;2023-04-15T14:04:26;10.10;99.90
61016;DHT22;46902;52.920;6.536;2023-04-15T14:06:51;10.10;99.90
61016;DHT22;46902;52.920;6.536;2023-04-15T14:09:17;10.10;99.90
61016;DHT22;46902;52.920;6.536;2023-04-15T14:11:43;10.10;99.90
61016;DHT22;46902;52.920;6.536;2023-04-15T14:14:09;10.10;99.90
61016;DHT22;46902;52.920;6.536;2023-04-15T14:16:34;10.00;99.90
61016;DHT22;46902;52.920;6.536;2023-04-15T14:19:01;10.00;99.90
61016;DHT22;46902;52.920;6.536;2023-04-15T14:21:27;10.00;99.90
61016;DHT22;46902;52.920;6.536;2023-04-15T14:23:53;9.90;99.90
61016;DHT22;46902;52.920;6.536;2023-04-15T14:26:19;9.90;99.90
61016;DHT22;46902;52.920;6.536;2023-04-15T14:28:44;9.90;99.90
61016;DHT22;46902;52.920;6.536;2023-04-15T14:31:10;9.90;99.90
61016;DHT22;46902;52.920;6.536;2023-04-15T14:33:36;9.90;99.90
61016;DHT22;46902;52.920;6.536;2023-04-15T14:36:01;9.90;99.90
61016;DHT22;46902;52.920;6.536;2023-04-15T14:38:27;9.80;99.90
61016;DHT22;46902;52.920;6.536;2023-04-15T14:40:53;9.80;99.90
61016;DHT22;46902;52.920;6.536;2023-04-15T14:43:19;9.80;99.90
61016;DHT22;46902;52.920;6.536;2023-04-15T14:45:45;9.80;99.90
61016;DHT22;46902;52.920;6.536;2023-04-15T14:48:11;9.90;99.90
61016;DHT22;46902;52.920;6.536;2023-04-15T14:50:37;9.90;99.90
61016;DHT22;46902;52.920;6.536;2023-04-15T14:53:03;9.80;99.90
61016;DHT22;46902;52.920;6.536;2023-04-15T14:55:28;9.90;99.90
61016;DHT22;46902;52.920;6.536;2023-04-15T14:57:54;9.90;99.90
61016;DHT22;46902;52.920;6.536;2023-04-15T15:00:19;9.80;99.90
61016;DHT22;46902;52.920;6.536;2023-04-15T15:02:45;9.90;99.90
61016;DHT22;46902;52.920;6.536;2023-04-15T15:05:13;9.90;99.90
61016;DHT22;46902;52.920;6.536;2023-04-15T15:07:40;9.90;99.90
61016;DHT22;46902;52.920;6.536;2023-04-15T15:10:06;9.80;99.90
61016;DHT22;46902;52.920;6.536;2023-04-15T15:12:32;9.90;99.90
61016;DHT22;46902;52.920;6.536;2023-04-15T15:14:58;9.90;99.90
61016;DHT22;46902;52.920;6.536;2023-04-15T15:17:23;9.90;99.90
61016;DHT22;46902;52.920;6.536;2023-04-15T15:19:49;9.80;99.90
61016;DHT22;46902;52.920;6.536;2023-04-15T15:22:15;9.80;99.90
61016;DHT22;46902;52.920;6.536;2023-04-15T15:24:41;9.70;99.90
61016;DHT22;46902;52.920;6.536;2023-04-15T15:27:06;9.70;99.90
61016;DHT22;46902;52.920;6.536;2023-04-15T15:29:32;9.60;99.90
61016;DHT22;46902;52.920;6.536;2023-04-15T15:31:58;9.70;99.90
61016;DHT22;46902;52.920;6.536;2023-04-15T15:34:23;9.60;99.90
61016;DHT22;46902;52.920;6.536;2023-04-15T15:36:49;9.60;99.90
61016;DHT22;46902;52.920;6.536;2023-04-15T15:39:15;9.50;99.90
61016;DHT22;46902;52.920;6.536;2023-04-15T15:41:40;9.50;99.90
61016;DHT22;46902;52.920;6.536;2023-04-15T15:44:06;9.50;99.90
61016;DHT22;46902;52.920;6.536;2023-04-15T15:46:32;9.50;99.90
61016;DHT22;46902;52.920;6.536;2023-04-15T15:48:57;9.50;99.90
61016;DHT22;46902;52.920;6.536;2023-04-15T15:51:23;9.40;99.90